sensor_id;sensor_type;location;lat;lon;timestamp;temperature;humidity
11491;DHT22;5802;52.832;4.758;2022-07-18T00:01:54;25.20;47.60
11491;DHT22;5802;52.832;4.758;2022-07-18T00:04:21;25.20;46.90
11491;DHT22;5802;52.832;4.758;2022-07-18T00:06:48;25.20;47.10
11491;DHT22;5802;52.832;4.758;2022-07-18T00:09:15;25.20;47.10
11491;DHT22;5802;52.832;4.758;2022-07-18T00:11:41;25.20;47.10
11491;DHT22;5802;52.832;4.758;2022-07-18T00:14:08;25.20;47.10
11491;DHT22;5802;52.832;4.758;2022-07-18T00:16:37;25.20;47.30
11491;DHT22;5802;52.832;4.758;2022-07-18T00:19:05;25.20;47.00
11491;DHT22;5802;52.832;4.758;2022-07-18T00:21:32;25.10;47.00
11491;DHT22;5802;52.832;4.758;2022-07-18T00:23:59;25.10;47.10
11491;DHT22;5802;52.832;4.758;2022-07-18T00:26:29;25.10;47.10
11491;DHT22;5802;52.832;4.758;2022-07-18T00:28:56;25.10;47.20
11491;DHT22;5802;52.832;4.758;2022-07-18T00:31:22;25.10;47.10
11491;DHT22;5802;52.832;4.758;2022-07-18T00:33:50;25.10;47.10
11491;DHT22;5802;52.832;4.758;2022-07-18T00:36:17;25.10;47.10
11491;DHT22;5802;52.832;4.758;2022-07-18T00:38:44;25.10;47.30
11491;DHT22;5802;52.832;4.758;2022-07-18T00:41:14;25.10;47.20
11491;DHT22;5802;52.832;4.758;2022-07-18T00:43:41;25.10;47.30
11491;DHT22;5802;52.832;4.758;2022-07-18T00:46:08;25.00;47.20
11491;DHT22;5802;52.832;4.758;2022-07-18T00:48:36;25.00;47.10
11491;DHT22;5802;52.832;4.758;2022-07-18T00:51:05;25.00;47.30
11491;DHT22;5802;52.832;4.758;2022-07-18T00:53:31;25.00;47.20
11491;DHT22;5802;52.832;4.758;2022-07-18T00:55:59;25.00;47.20
11491;DHT22;5802;52.832;4.758;2022-07-18T00:58:27;25.00;47.20
11491;DHT22;5802;52.832;4.758;2022-07-18T01:00:55;25.00;47.40
11491;DHT22;5802;52.832;4.758;2022-07-18T01:03:39;24.90;47.40
11491;DHT22;5802;52.832;4.758;2022-07-18T01:06:08;24.90;47.40
11491;DHT22;5802;52.832;4.758;2022-07-18T01:08:34;24.90;47.50
11491;DHT22;5802;52.832;4.758;2022-07-18T01:11:03;24.90;47.50
11491;DHT22;5802;52.832;4.758;2022-07-18T01:13:29;24.90;47.50
11491;DHT22;5802;52.832;4.758;2022-07-18T01:15:56;24.90;48.20
11491;DHT22;5802;52.832;4.758;2022-07-18T01:18:23;24.90;47.50
11491;DHT22;5802;52.832;4.758;2022-07-18T01:20:51;24.90;47.50
11491;DHT22;5802;52.832;4.758;2022-07-18T01:23:18;24.90;47.50
11491;DHT22;5802;52.832;4.758;2022-07-18T01:25:45;24.90;47.50
11491;DHT22;5802;52.832;4.758;2022-07-18T01:28:11;24.90;47.50
11491;DHT22;5802;52.832;4.758;2022-07-18T01:30:38;24.90;47.50
11491;DHT22;5802;52.832;4.758;2022-07-18T01:33:05;24.90;47.50
11491;DHT22;5802;52.832;4.758;2022-07-18T01:35:32;24.90;47.50
11491;DHT22;5802;52.832;4.758;2022-07-18T01:38:02;24.80;47.40
11491;DHT22;5802;52.832;4.758;2022-07-18T01:40:29;24.80;47.50
11491;DHT22;5802;52.832;4.758;2022-07-18T01:42:57;24.90;47.50
11491;DHT22;5802;52.832;4.758;2022-07-18T01:45:24;24.90;47.50
11491;DHT22;5802;52.832;4.758;2022-07-18T01:47:51;24.80;47.50
11491;DHT22;5802;52.832;4.758;2022-07-18T01:50:18;24.80;47.50
11491;DHT22;5802;52.832;4.758;2022-07-18T01:52:44;24.80;47.60
11491;DHT22;5802;52.832;4.758;2022-07-18T01:55:12;24.80;47.60
11491;DHT22;5802;52.832;4.758;2022-07-18T01:57:39;24.80;47.60
11491;DHT22;5802;52.832;4.758;2022-07-18T02:00:08;24.80;47.60
11491;DHT22;5802;52.832;4.758;2022-07-18T02:02:36;24.80;47.70
11491;DHT22;5802;52.832;4.758;2022-07-18T02:05:04;24.80;47.60
11491;DHT22;5802;52.832;4.758;2022-07-18T02:07:33;24.70;47.60
11491;DHT22;5802;52.832;4.758;2022-07-18T02:10:01;24.70;47.60
11491;DHT22;5802;52.832;4.758;2022-07-18T02:12:29;24.70;47.60
11491;DHT22;5802;52.832;4.758;2022-07-18T02:14:55;24.70;47.70
11491;DHT22;5802;52.832;4.758;2022-07-18T02:17:22;24.70;47.80
11491;DHT22;5802;52.832;4.758;2022-07-18T02:19:49;24.70;47.80
11491;DHT22;5802;52.832;4.758;2022-07-18T02:22:16;24.70;47.80
11491;DHT22;5802;52.832;4.758;2022-07-18T02:24:42;24.70;47.80
11491;DHT22;5802;52.832;4.758;2022-07-18T02:27:09;24.70;47.70
11491;DHT22;5802;52.832;4.758;2022-07-18T02:29:38;24.70;47.80
11491;DHT22;5802;52.832;4.758;2022-07-18T02:32:05;24.70;47.80
11491;DHT22;5802;52.832;4.758;2022-07-18T02:34:32;24.70;47.80
11491;DHT22;5802;52.832;4.758;2022-07-18T02:36:59;24.70;47.90
11491;DHT22;5802;52.832;4.758;2022-07-18T02:39:25;24.70;47.90
11491;DHT22;5802;52.832;4.758;2022-07-18T02:41:52;24.70;47.90
11491;DHT22;5802;52.832;4.758;2022-07-18T02:44:19;24.70;47.90
11491;DHT22;5802;52.832;4.758;2022-07-18T02:46:47;24.70;47.80
11491;DHT22;5802;52.832;4.758;2022-07-18T02:49:14;24.70;47.90
11491;DHT22;5802;52.832;4.758;2022-07-18T02:51:54;24.70;47.90
11491;DHT22;5802;52.832;4.758;2022-07-18T02:54:21;24.70;48.00
11491;DHT22;5802;52.832;4.758;2022-07-18T02:56:48;24.70;48.00
11491;DHT22;5802;52.832;4.758;2022-07-18T02:59:15;24.70;48.00
11491;DHT22;5802;52.832;4.758;2022-07-18T03:01:41;24.70;48.00
11491;DHT22;5802;52.832;4.758;2022-07-18T03:04:09;24.70;48.10
11491;DHT22;5802;52.832;4.758;2022-07-18T03:06:36;24.60;48.10
11491;DHT22;5802;52.832;4.758;2022-07-18T03:09:04;24.60;48.00
11491;DHT22;5802;52.832;4.758;2022-07-18T03:11:31;24.60;48.00
11491;DHT22;5802;52.832;4.758;2022-07-18T03:13:58;24.60;48.00
11491;DHT22;5802;52.832;4.758;2022-07-18T03:16:24;24.60;48.00
11491;DHT22;5802;52.832;4.758;2022-07-18T03:18:51;24.60;48.00
11491;DHT22;5802;52.832;4.758;2022-07-18T03:21:19;24.60;48.00
11491;DHT22;5802;52.832;4.758;2022-07-18T03:23:46;24.60;48.00
11491;DHT22;5802;52.832;4.758;2022-07-18T03:26:13;24.60;48.00
11491;DHT22;5802;52.832;4.758;2022-07-18T03:28:40;24.60;48.00
11491;DHT22;5802;52.832;4.758;2022-07-18T03:31:06;24.60;48.00
11491;DHT22;5802;52.832;4.758;2022-07-18T03:33:33;24.60;48.00
11491;DHT22;5802;52.832;4.758;2022-07-18T03:36:00;24.60;48.00
11491;DHT22;5802;52.832;4.758;2022-07-18T03:38:28;24.60;48.00
11491;DHT22;5802;52.832;4.758;2022-07-18T03:40:55;24.60;48.00
11491;DHT22;5802;52.832;4.758;2022-07-18T03:43:22;24.50;48.00
11491;DHT22;5802;52.832;4.758;2022-07-18T03:45:48;24.50;48.00
11491;DHT22;5802;52.832;4.758;2022-07-18T03:48:15;24.60;48.00
11491;DHT22;5802;52.832;4.758;2022-07-18T03:50:42;24.50;47.90
11491;DHT22;5802;52.832;4.758;2022-07-18T03:53:08;24.50;47.90
11491;DHT22;5802;52.832;4.758;2022-07-18T03:55:36;24.50;47.90
11491;DHT22;5802;52.832;4.758;2022-07-18T03:58:06;24.50;47.90
11491;DHT22;5802;52.832;4.758;2022-07-18T04:00:33;24.50;48.60
11491;DHT22;5802;52.832;4.758;2022-07-18T04:03:00;24.50;48.00
11491;DHT22;5802;52.832;4.758;2022-07-18T04:05:26;24.50;48.00
11491;DHT22;5802;52.832;4.758;2022-07-18T04:07:53;24.50;48.10
11491;DHT22;5802;52.832;4.758;2022-07-18T04:10:20;24.50;48.00
11491;DHT22;5802;52.832;4.758;2022-07-18T04:12:50;24.50;48.10
11491;DHT22;5802;52.832;4.758;2022-07-18T04:15:17;24.50;48.10
11491;DHT22;5802;52.832;4.758;2022-07-18T04:17:44;24.50;48.10
11491;DHT22;5802;52.832;4.758;2022-07-18T04:20:12;24.50;48.10
11491;DHT22;5802;52.832;4.758;2022-07-18T04:22:47;24.50;48.10
11491;DHT22;5802;52.832;4.758;2022-07-18T04:25:14;24.50;48.10
11491;DHT22;5802;52.832;4.758;2022-07-18T04:27:40;24.50;48.20
11491;DHT22;5802;52.832;4.758;2022-07-18T04:30:09;24.40;48.20
11491;DHT22;5802;52.832;4.758;2022-07-18T04:32:36;24.40;48.20
11491;DHT22;5802;52.832;4.758;2022-07-18T04:35:04;24.40;48.20
11491;DHT22;5802;52.832;4.758;2022-07-18T04:37:31;24.40;48.20
11491;DHT22;5802;52.832;4.758;2022-07-18T04:39:58;24.40;48.30
11491;DHT22;5802;52.832;4.758;2022-07-18T04:42:27;24.40;48.20
11491;DHT22;5802;52.832;4.758;2022-07-18T04:44:56;24.40;48.40
11491;DHT22;5802;52.832;4.758;2022-07-18T04:47:24;24.40;48.40
11491;DHT22;5802;52.832;4.758;2022-07-18T04:49:51;24.40;49.00
11491;DHT22;5802;52.832;4.758;2022-07-18T04:52:18;24.40;48.40
11491;DHT22;5802;52.832;4.758;2022-07-18T04:54:45;24.40;48.40
11491;DHT22;5802;52.832;4.758;2022-07-18T04:57:12;24.40;48.40
11491;DHT22;5802;52.832;4.758;2022-07-18T04:59:40;24.40;48.40
11491;DHT22;5802;52.832;4.758;2022-07-18T05:02:07;24.40;48.40
11491;DHT22;5802;52.832;4.758;2022-07-18T05:04:37;24.40;48.40
11491;DHT22;5802;52.832;4.758;2022-07-18T05:07:04;24.40;48.40
11491;DHT22;5802;52.832;4.758;2022-07-18T05:09:31;24.40;48.40
11491;DHT22;5802;52.832;4.758;2022-07-18T05:11:58;24.40;48.40
11491;DHT22;5802;52.832;4.758;2022-07-18T05:14:25;24.50;48.40
11491;DHT22;5802;52.832;4.758;2022-07-18T05:16:52;24.40;48.40
11491;DHT22;5802;52.832;4.758;2022-07-18T05:19:18;24.40;48.40
11491;DHT22;5802;52.832;4.758;2022-07-18T05:21:47;24.40;48.40
11491;DHT22;5802;52.832;4.758;2022-07-18T05:24:13;24.40;48.30
11491;DHT22;5802;52.832;4.758;2022-07-18T05:26:40;24.40;48.40
11491;DHT22;5802;52.832;4.758;2022-07-18T05:29:07;24.40;48.40
11491;DHT22;5802;52.832;4.758;2022-07-18T05:31:34;24.40;48.30
11491;DHT22;5802;52.832;4.758;2022-07-18T05:34:00;24.40;48.90
11491;DHT22;5802;52.832;4.758;2022-07-18T05:36:27;24.50;48.30
11491;DHT22;5802;52.832;4.758;2022-07-18T05:38:55;24.50;48.20
11491;DHT22;5802;52.832;4.758;2022-07-18T05:41:22;24.50;48.20
11491;DHT22;5802;52.832;4.758;2022-07-18T05:43:48;24.50;48.20
11491;DHT22;5802;52.832;4.758;2022-07-18T05:46:15;24.50;48.20
11491;DHT22;5802;52.832;4.758;2022-07-18T05:48:42;24.50;48.10
11491;DHT22;5802;52.832;4.758;2022-07-18T05:51:09;24.50;48.10
11491;DHT22;5802;52.832;4.758;2022-07-18T05:53:36;24.50;48.00
11491;DHT22;5802;52.832;4.758;2022-07-18T05:56:05;24.50;48.00
11491;DHT22;5802;52.832;4.758;2022-07-18T05:58:33;24.50;47.90
11491;DHT22;5802;52.832;4.758;2022-07-18T06:01:00;24.50;47.90
11491;DHT22;5802;52.832;4.758;2022-07-18T06:03:27;24.60;48.00
11491;DHT22;5802;52.832;4.758;2022-07-18T06:05:53;24.60;48.00
11491;DHT22;5802;52.832;4.758;2022-07-18T06:08:20;24.60;47.90
11491;DHT22;5802;52.832;4.758;2022-07-18T06:10:47;24.60;47.90
11491;DHT22;5802;52.832;4.758;2022-07-18T06:13:24;24.60;47.80
11491;DHT22;5802;52.832;4.758;2022-07-18T06:15:51;24.70;47.70
11491;DHT22;5802;52.832;4.758;2022-07-18T06:18:17;24.70;47.50
11491;DHT22;5802;52.832;4.758;2022-07-18T06:20:44;24.70;47.50
11491;DHT22;5802;52.832;4.758;2022-07-18T06:23:11;24.70;47.50
11491;DHT22;5802;52.832;4.758;2022-07-18T06:25:38;24.70;47.40
11491;DHT22;5802;52.832;4.758;2022-07-18T06:28:04;24.70;47.40
11491;DHT22;5802;52.832;4.758;2022-07-18T06:30:32;24.80;47.30
11491;DHT22;5802;52.832;4.758;2022-07-18T06:32:59;24.80;47.30
11491;DHT22;5802;52.832;4.758;2022-07-18T06:35:29;24.80;47.20
11491;DHT22;5802;52.832;4.758;2022-07-18T06:37:55;24.80;47.20
11491;DHT22;5802;52.832;4.758;2022-07-18T06:40:22;24.80;47.20
11491;DHT22;5802;52.832;4.758;2022-07-18T06:42:50;24.80;47.20
11491;DHT22;5802;52.832;4.758;2022-07-18T06:45:18;24.80;47.20
11491;DHT22;5802;52.832;4.758;2022-07-18T06:47:46;24.90;47.20
11491;DHT22;5802;52.832;4.758;2022-07-18T06:50:15;24.90;47.20
11491;DHT22;5802;52.832;4.758;2022-07-18T06:52:44;24.90;47.20
11491;DHT22;5802;52.832;4.758;2022-07-18T06:55:12;24.90;47.20
11491;DHT22;5802;52.832;4.758;2022-07-18T06:57:40;25.00;47.10
11491;DHT22;5802;52.832;4.758;2022-07-18T07:00:09;25.00;47.10
11491;DHT22;5802;52.832;4.758;2022-07-18T07:02:40;25.10;47.00
11491;DHT22;5802;52.832;4.758;2022-07-18T07:05:09;25.10;47.00
11491;DHT22;5802;52.832;4.758;2022-07-18T07:07:36;25.20;47.00
11491;DHT22;5802;52.832;4.758;2022-07-18T07:10:03;25.30;47.00
11491;DHT22;5802;52.832;4.758;2022-07-18T07:12:37;25.30;47.00
11491;DHT22;5802;52.832;4.758;2022-07-18T07:15:05;25.40;47.00
11491;DHT22;5802;52.832;4.758;2022-07-18T07:17:32;25.40;46.90
11491;DHT22;5802;52.832;4.758;2022-07-18T07:19:59;25.50;46.90
11491;DHT22;5802;52.832;4.758;2022-07-18T07:22:27;25.60;46.90
11491;DHT22;5802;52.832;4.758;2022-07-18T07:24:54;25.60;46.80
11491;DHT22;5802;52.832;4.758;2022-07-18T07:27:20;25.70;46.80
11491;DHT22;5802;52.832;4.758;2022-07-18T07:29:47;25.70;46.80
11491;DHT22;5802;52.832;4.758;2022-07-18T07:32:14;25.80;46.70
11491;DHT22;5802;52.832;4.758;2022-07-18T07:34:40;25.80;46.70
11491;DHT22;5802;52.832;4.758;2022-07-18T07:37:07;25.80;46.70
11491;DHT22;5802;52.832;4.758;2022-07-18T07:39:38;25.90;46.70
11491;DHT22;5802;52.832;4.758;2022-07-18T07:42:04;26.00;46.70
11491;DHT22;5802;52.832;4.758;2022-07-18T07:44:31;26.00;46.60
11491;DHT22;5802;52.832;4.758;2022-07-18T07:46:58;26.10;46.60
11491;DHT22;5802;52.832;4.758;2022-07-18T07:49:26;26.10;46.40
11491;DHT22;5802;52.832;4.758;2022-07-18T07:51:53;26.20;46.40
11491;DHT22;5802;52.832;4.758;2022-07-18T07:54:20;26.20;46.30
11491;DHT22;5802;52.832;4.758;2022-07-18T07:56:48;26.30;46.30
11491;DHT22;5802;52.832;4.758;2022-07-18T07:59:15;26.30;46.20
11491;DHT22;5802;52.832;4.758;2022-07-18T08:01:43;26.40;46.30
11491;DHT22;5802;52.832;4.758;2022-07-18T08:04:09;26.50;46.20
11491;DHT22;5802;52.832;4.758;2022-07-18T08:06:36;26.50;46.10
11491;DHT22;5802;52.832;4.758;2022-07-18T08:09:03;26.60;46.00
11491;DHT22;5802;52.832;4.758;2022-07-18T08:11:31;26.60;45.90
11491;DHT22;5802;52.832;4.758;2022-07-18T08:14:00;26.70;45.90
11491;DHT22;5802;52.832;4.758;2022-07-18T08:16:26;26.70;45.70
11491;DHT22;5802;52.832;4.758;2022-07-18T08:18:53;26.80;45.70
11491;DHT22;5802;52.832;4.758;2022-07-18T08:21:20;26.90;45.60
11491;DHT22;5802;52.832;4.758;2022-07-18T08:23:46;26.90;45.50
11491;DHT22;5802;52.832;4.758;2022-07-18T08:26:13;26.90;45.30
11491;DHT22;5802;52.832;4.758;2022-07-18T08:28:40;27.00;45.30
11491;DHT22;5802;52.832;4.758;2022-07-18T08:31:08;27.00;45.20
11491;DHT22;5802;52.832;4.758;2022-07-18T08:33:35;27.00;45.10
11491;DHT22;5802;52.832;4.758;2022-07-18T08:36:02;27.10;45.10
11491;DHT22;5802;52.832;4.758;2022-07-18T08:38:28;27.10;45.00
11491;DHT22;5802;52.832;4.758;2022-07-18T08:40:56;27.10;45.00
11491;DHT22;5802;52.832;4.758;2022-07-18T08:43:25;27.10;45.10
11491;DHT22;5802;52.832;4.758;2022-07-18T08:45:55;27.10;45.10
11491;DHT22;5802;52.832;4.758;2022-07-18T08:48:24;27.10;45.10
11491;DHT22;5802;52.832;4.758;2022-07-18T08:50:50;27.00;45.10
11491;DHT22;5802;52.832;4.758;2022-07-18T08:53:18;27.00;45.00
11491;DHT22;5802;52.832;4.758;2022-07-18T08:55:46;27.10;45.10
11491;DHT22;5802;52.832;4.758;2022-07-18T08:58:13;27.10;45.10
11491;DHT22;5802;52.832;4.758;2022-07-18T09:00:40;27.00;45.00
11491;DHT22;5802;52.832;4.758;2022-07-18T09:03:07;27.10;45.00
11491;DHT22;5802;52.832;4.758;2022-07-18T09:05:35;27.10;44.90
11491;DHT22;5802;52.832;4.758;2022-07-18T09:08:10;27.10;44.90
11491;DHT22;5802;52.832;4.758;2022-07-18T09:10:41;27.10;44.80
11491;DHT22;5802;52.832;4.758;2022-07-18T09:13:08;27.00;44.80
11491;DHT22;5802;52.832;4.758;2022-07-18T09:15:35;27.00;44.80
11491;DHT22;5802;52.832;4.758;2022-07-18T09:18:26;27.00;44.90
11491;DHT22;5802;52.832;4.758;2022-07-18T09:20:59;27.00;45.00
11491;DHT22;5802;52.832;4.758;2022-07-18T09:23:28;26.90;44.90
11491;DHT22;5802;52.832;4.758;2022-07-18T09:25:54;26.90;45.00
11491;DHT22;5802;52.832;4.758;2022-07-18T09:28:21;26.90;45.00
11491;DHT22;5802;52.832;4.758;2022-07-18T09:30:48;26.90;45.10
11491;DHT22;5802;52.832;4.758;2022-07-18T09:33:15;26.90;45.10
11491;DHT22;5802;52.832;4.758;2022-07-18T09:35:44;26.90;45.10
11491;DHT22;5802;52.832;4.758;2022-07-18T09:38:14;26.90;45.10
11491;DHT22;5802;52.832;4.758;2022-07-18T09:40:42;26.90;45.10
11491;DHT22;5802;52.832;4.758;2022-07-18T09:43:11;27.00;45.10
11491;DHT22;5802;52.832;4.758;2022-07-18T09:45:39;27.10;44.80
11491;DHT22;5802;52.832;4.758;2022-07-18T09:48:08;27.10;44.30
11491;DHT22;5802;52.832;4.758;2022-07-18T09:50:37;27.20;44.30
11491;DHT22;5802;52.832;4.758;2022-07-18T09:53:13;27.20;44.20
11491;DHT22;5802;52.832;4.758;2022-07-18T09:55:48;27.20;44.20
11491;DHT22;5802;52.832;4.758;2022-07-18T09:58:17;27.20;44.30
11491;DHT22;5802;52.832;4.758;2022-07-18T10:00:45;27.20;44.30
11491;DHT22;5802;52.832;4.758;2022-07-18T10:03:12;27.10;44.30
11491;DHT22;5802;52.832;4.758;2022-07-18T10:05:40;27.20;44.40
11491;DHT22;5802;52.832;4.758;2022-07-18T10:08:09;27.10;44.30
11491;DHT22;5802;52.832;4.758;2022-07-18T10:10:38;27.20;44.40
11491;DHT22;5802;52.832;4.758;2022-07-18T10:13:07;27.10;44.50
11491;DHT22;5802;52.832;4.758;2022-07-18T10:15:36;27.10;44.50
11491;DHT22;5802;52.832;4.758;2022-07-18T10:18:05;27.10;44.70
11491;DHT22;5802;52.832;4.758;2022-07-18T10:20:35;27.10;44.80
11491;DHT22;5802;52.832;4.758;2022-07-18T10:23:08;27.10;45.00
11491;DHT22;5802;52.832;4.758;2022-07-18T10:25:37;27.10;45.10
11491;DHT22;5802;52.832;4.758;2022-07-18T10:28:06;27.10;45.20
11491;DHT22;5802;52.832;4.758;2022-07-18T10:30:39;27.10;45.40
11491;DHT22;5802;52.832;4.758;2022-07-18T10:33:37;27.10;45.60
11491;DHT22;5802;52.832;4.758;2022-07-18T10:36:06;27.10;45.60
11491;DHT22;5802;52.832;4.758;2022-07-18T10:38:34;27.10;45.50
11491;DHT22;5802;52.832;4.758;2022-07-18T10:41:05;27.10;45.50
11491;DHT22;5802;52.832;4.758;2022-07-18T10:43:46;27.20;45.60
11491;DHT22;5802;52.832;4.758;2022-07-18T10:46:13;27.10;45.50
11491;DHT22;5802;52.832;4.758;2022-07-18T10:48:54;27.20;45.60
11491;DHT22;5802;52.832;4.758;2022-07-18T10:51:29;27.20;45.50
11491;DHT22;5802;52.832;4.758;2022-07-18T10:54:07;27.20;45.50
11491;DHT22;5802;52.832;4.758;2022-07-18T10:57:11;27.20;45.50
11491;DHT22;5802;52.832;4.758;2022-07-18T11:02:30;27.20;45.50
11491;DHT22;5802;52.832;4.758;2022-07-18T11:04:57;27.20;45.60
11491;DHT22;5802;52.832;4.758;2022-07-18T11:07:24;27.20;45.70
11491;DHT22;5802;52.832;4.758;2022-07-18T11:09:51;27.20;45.70
11491;DHT22;5802;52.832;4.758;2022-07-18T11:12:27;27.20;45.60
11491;DHT22;5802;52.832;4.758;2022-07-18T11:15:02;27.20;45.60
11491;DHT22;5802;52.832;4.758;2022-07-18T11:18:03;27.20;45.50
11491;DHT22;5802;52.832;4.758;2022-07-18T11:20:41;27.20;45.40
11491;DHT22;5802;52.832;4.758;2022-07-18T11:23:17;27.20;45.40
11491;DHT22;5802;52.832;4.758;2022-07-18T11:25:44;27.20;45.30
11491;DHT22;5802;52.832;4.758;2022-07-18T11:28:13;27.20;45.20
11491;DHT22;5802;52.832;4.758;2022-07-18T11:30:40;27.30;45.20
11491;DHT22;5802;52.832;4.758;2022-07-18T11:33:21;27.30;45.20
11491;DHT22;5802;52.832;4.758;2022-07-18T11:35:49;27.30;45.10
11491;DHT22;5802;52.832;4.758;2022-07-18T11:38:15;27.30;45.00
11491;DHT22;5802;52.832;4.758;2022-07-18T11:40:49;27.30;44.90
11491;DHT22;5802;52.832;4.758;2022-07-18T11:43:22;27.30;44.80
11491;DHT22;5802;52.832;4.758;2022-07-18T11:45:59;27.30;44.70
11491;DHT22;5802;52.832;4.758;2022-07-18T11:48:26;27.30;44.60
11491;DHT22;5802;52.832;4.758;2022-07-18T11:50:53;27.30;44.50
11491;DHT22;5802;52.832;4.758;2022-07-18T11:53:20;27.30;44.40
11491;DHT22;5802;52.832;4.758;2022-07-18T11:55:47;27.30;44.40
11491;DHT22;5802;52.832;4.758;2022-07-18T11:58:16;27.30;44.40
11491;DHT22;5802;52.832;4.758;2022-07-18T12:00:46;27.30;44.40
11491;DHT22;5802;52.832;4.758;2022-07-18T12:03:15;27.30;44.30
11491;DHT22;5802;52.832;4.758;2022-07-18T12:05:44;27.30;44.30
11491;DHT22;5802;52.832;4.758;2022-07-18T12:08:32;27.30;44.40
11491;DHT22;5802;52.832;4.758;2022-07-18T12:11:06;27.30;44.40
11491;DHT22;5802;52.832;4.758;2022-07-18T12:13:45;27.30;44.20
11491;DHT22;5802;52.832;4.758;2022-07-18T12:16:32;27.30;44.10
11491;DHT22;5802;52.832;4.758;2022-07-18T12:19:01;27.30;44.00
11491;DHT22;5802;52.832;4.758;2022-07-18T12:21:42;27.30;43.90
11491;DHT22;5802;52.832;4.758;2022-07-18T12:24:34;27.30;43.80
11491;DHT22;5802;52.832;4.758;2022-07-18T12:27:15;27.20;43.60
11491;DHT22;5802;52.832;4.758;2022-07-18T12:30:00;27.30;43.70
11491;DHT22;5802;52.832;4.758;2022-07-18T12:32:37;27.20;43.60
11491;DHT22;5802;52.832;4.758;2022-07-18T12:35:06;27.20;43.50
11491;DHT22;5802;52.832;4.758;2022-07-18T12:37:33;27.30;43.50
11491;DHT22;5802;52.832;4.758;2022-07-18T12:40:02;27.30;43.40
11491;DHT22;5802;52.832;4.758;2022-07-18T12:42:30;27.30;43.20
11491;DHT22;5802;52.832;4.758;2022-07-18T12:44:58;27.30;43.00
11491;DHT22;5802;52.832;4.758;2022-07-18T12:47:25;27.30;43.00
11491;DHT22;5802;52.832;4.758;2022-07-18T12:49:54;27.30;42.90
11491;DHT22;5802;52.832;4.758;2022-07-18T12:52:22;27.30;42.70
11491;DHT22;5802;52.832;4.758;2022-07-18T12:54:49;27.30;42.60
11491;DHT22;5802;52.832;4.758;2022-07-18T12:57:16;27.30;42.60
11491;DHT22;5802;52.832;4.758;2022-07-18T12:59:43;27.30;42.90
11491;DHT22;5802;52.832;4.758;2022-07-18T13:02:10;27.40;43.10
11491;DHT22;5802;52.832;4.758;2022-07-18T13:04:37;27.40;43.20
11491;DHT22;5802;52.832;4.758;2022-07-18T13:07:05;27.40;43.10
11491;DHT22;5802;52.832;4.758;2022-07-18T13:09:32;27.40;42.70
11491;DHT22;5802;52.832;4.758;2022-07-18T13:12:02;27.40;43.00
11491;DHT22;5802;52.832;4.758;2022-07-18T13:14:28;27.50;43.10
11491;DHT22;5802;52.832;4.758;2022-07-18T13:16:55;27.50;42.90
11491;DHT22;5802;52.832;4.758;2022-07-18T13:19:22;27.50;42.80
11491;DHT22;5802;52.832;4.758;2022-07-18T13:21:49;27.50;42.70
11491;DHT22;5802;52.832;4.758;2022-07-18T13:24:17;27.60;42.70
11491;DHT22;5802;52.832;4.758;2022-07-18T13:26:47;27.60;42.50
11491;DHT22;5802;52.832;4.758;2022-07-18T13:29:13;27.60;42.40
11491;DHT22;5802;52.832;4.758;2022-07-18T13:31:41;27.60;42.20
11491;DHT22;5802;52.832;4.758;2022-07-18T13:34:07;27.70;42.30
11491;DHT22;5802;52.832;4.758;2022-07-18T13:36:34;27.70;42.30
11491;DHT22;5802;52.832;4.758;2022-07-18T13:39:01;27.70;41.90
11491;DHT22;5802;52.832;4.758;2022-07-18T13:41:29;27.80;41.20
11491;DHT22;5802;52.832;4.758;2022-07-18T13:43:57;27.80;40.80
11491;DHT22;5802;52.832;4.758;2022-07-18T13:46:23;27.80;40.60
11491;DHT22;5802;52.832;4.758;2022-07-18T13:48:52;27.80;40.40
11491;DHT22;5802;52.832;4.758;2022-07-18T13:51:19;27.80;40.20
11491;DHT22;5802;52.832;4.758;2022-07-18T13:53:46;27.90;39.90
11491;DHT22;5802;52.832;4.758;2022-07-18T13:56:13;27.90;39.90
11491;DHT22;5802;52.832;4.758;2022-07-18T13:58:41;27.90;39.80
11491;DHT22;5802;52.832;4.758;2022-07-18T14:01:07;28.00;39.60
11491;DHT22;5802;52.832;4.758;2022-07-18T14:03:35;28.00;39.50
11491;DHT22;5802;52.832;4.758;2022-07-18T14:06:01;28.10;39.50
11491;DHT22;5802;52.832;4.758;2022-07-18T14:08:28;28.10;39.10
11491;DHT22;5802;52.832;4.758;2022-07-18T14:10:55;28.10;39.00
11491;DHT22;5802;52.832;4.758;2022-07-18T14:13:22;28.20;39.00
11491;DHT22;5802;52.832;4.758;2022-07-18T14:15:50;28.20;38.70
11491;DHT22;5802;52.832;4.758;2022-07-18T14:18:16;28.30;38.70
11491;DHT22;5802;52.832;4.758;2022-07-18T14:20:43;28.30;38.40
11491;DHT22;5802;52.832;4.758;2022-07-18T14:23:10;28.40;38.30
11491;DHT22;5802;52.832;4.758;2022-07-18T14:25:37;28.40;38.20
11491;DHT22;5802;52.832;4.758;2022-07-18T14:28:04;28.50;38.30
11491;DHT22;5802;52.832;4.758;2022-07-18T14:30:31;28.50;38.30
11491;DHT22;5802;52.832;4.758;2022-07-18T14:32:59;28.50;38.20
11491;DHT22;5802;52.832;4.758;2022-07-18T14:35:26;28.60;38.10
11491;DHT22;5802;52.832;4.758;2022-07-18T14:37:53;28.60;38.00
11491;DHT22;5802;52.832;4.758;2022-07-18T14:40:20;28.60;37.60
11491;DHT22;5802;52.832;4.758;2022-07-18T14:42:46;28.60;38.00
11491;DHT22;5802;52.832;4.758;2022-07-18T14:45:13;28.70;38.40
11491;DHT22;5802;52.832;4.758;2022-07-18T14:47:40;28.70;38.50
11491;DHT22;5802;52.832;4.758;2022-07-18T14:50:09;28.70;38.60
11491;DHT22;5802;52.832;4.758;2022-07-18T14:52:36;28.70;38.40
11491;DHT22;5802;52.832;4.758;2022-07-18T14:55:04;28.80;38.60
11491;DHT22;5802;52.832;4.758;2022-07-18T14:57:31;28.80;38.60
11491;DHT22;5802;52.832;4.758;2022-07-18T14:59:58;28.80;38.70
11491;DHT22;5802;52.832;4.758;2022-07-18T15:02:25;28.90;38.70
11491;DHT22;5802;52.832;4.758;2022-07-18T15:04:52;28.90;38.70
11491;DHT22;5802;52.832;4.758;2022-07-18T15:07:20;28.90;38.80
11491;DHT22;5802;52.832;4.758;2022-07-18T15:09:47;28.90;38.60
11491;DHT22;5802;52.832;4.758;2022-07-18T15:12:13;29.00;38.70
11491;DHT22;5802;52.832;4.758;2022-07-18T15:14:41;29.00;38.70
11491;DHT22;5802;52.832;4.758;2022-07-18T15:17:08;29.00;38.70
11491;DHT22;5802;52.832;4.758;2022-07-18T15:19:35;29.00;38.50
11491;DHT22;5802;52.832;4.758;2022-07-18T15:22:02;29.10;38.50
11491;DHT22;5802;52.832;4.758;2022-07-18T15:24:31;29.10;38.50
11491;DHT22;5802;52.832;4.758;2022-07-18T15:26:58;29.10;38.40
11491;DHT22;5802;52.832;4.758;2022-07-18T15:29:25;29.10;38.40
11491;DHT22;5802;52.832;4.758;2022-07-18T15:31:52;29.20;38.40
11491;DHT22;5802;52.832;4.758;2022-07-18T15:34:19;29.20;38.10
11491;DHT22;5802;52.832;4.758;2022-07-18T15:36:46;29.20;38.10
11491;DHT22;5802;52.832;4.758;2022-07-18T15:39:13;29.30;38.20
11491;DHT22;5802;52.832;4.758;2022-07-18T15:41:41;29.30;37.80
11491;DHT22;5802;52.832;4.758;2022-07-18T15:44:08;29.30;38.10
11491;DHT22;5802;52.832;4.758;2022-07-18T15:46:35;29.30;38.00
11491;DHT22;5802;52.832;4.758;2022-07-18T15:49:02;29.30;38.10
11491;DHT22;5802;52.832;4.758;2022-07-18T15:51:29;29.40;38.10
11491;DHT22;5802;52.832;4.758;2022-07-18T15:53:56;29.40;38.20
11491;DHT22;5802;52.832;4.758;2022-07-18T15:56:22;29.40;38.00